.
WxDataArchive / Data Records for 2010-07-29
2010-07-28 July 2010 2010-07-30

Data Records for Thursday, 29 July 2010

Time	Temp	Chill	HIndex	Humid	Dewpt	 Wind 	HiWind	WindDir	Rain 	Barom 
-----	----	-----	------	-----	-----	------	------	-------	-----	----- 
00:00	71.3	71.3	71.3	96	70.1	0	0	---	0.00	29.959 
00:05	71.3	71.3	71.3	96	70.1	0	0	---	0.00	29.959 
00:10	71.1	71.1	71.1	96	69.9	0	0	---	0.00	29.959 
00:15	71.1	71.1	71.1	96	69.9	0	0	---	0.00	29.953 
00:20	71.1	71.1	71.1	96	69.9	0	1	248	0.00	29.953 
00:25	71.1	71.1	71.1	96	69.9	0	1	248	0.00	29.953 
00:30	71.1	71.1	71.1	96	69.9	0	1	248	0.00	29.953 
00:35	71.1	71.1	71.1	96	69.9	0	1	248	0.00	29.953 
00:40	71.1	71.1	71.1	96	69.9	0	0	---	0.00	29.953 
00:45	71.1	71.1	71.1	96	69.9	0	0	---	0.00	29.959 
00:50	71.1	71.1	71.1	96	69.9	0	1	248	0.00	29.959 
00:55	70.9	70.9	70.9	96	69.7	0	1	248	0.00	29.959 
01:00	70.9	70.9	70.9	96	69.7	0	1	248	0.00	29.968 
01:05	70.9	70.9	70.9	96	69.7	0	1	248	0.00	29.968 
01:10	71.1	71.1	71.1	96	69.9	1	3	248	0.00	29.968 
01:15	71.1	71.1	71.1	96	69.9	0	1	248	0.00	29.971 
01:20	71.3	71.3	71.3	96	70.1	0	0	---	0.00	29.971 
01:25	71.1	71.1	71.1	96	69.9	0	1	248	0.00	29.971 
01:30	71.1	71.1	71.1	96	69.9	0	1	248	0.00	29.974 
01:35	71.1	71.1	71.1	96	69.9	0	0	---	0.00	29.974 
01:40	71.1	71.1	71.1	96	69.9	0	0	---	0.00	29.974 
01:45	71.3	71.3	71.3	96	70.1	0	1	248	0.00	29.972 
01:50	71.3	71.3	71.3	96	70.1	0	0	---	0.00	29.972 
01:55	71.3	71.3	71.3	96	70.1	0	1	248	0.00	29.972 
02:00	71.3	71.3	71.3	96	70.1	0	1	248	0.00	29.982 
02:05	71.3	71.3	71.3	96	70.1	0	1	248	0.00	29.982 
02:10	71.3	71.3	71.3	96	70.1	0	0	---	0.00	29.982 
02:15	71.1	71.1	71.1	96	69.9	0	0	---	0.00	29.973 
02:20	71.1	71.1	71.1	96	69.9	0	0	---	0.00	29.973 
02:25	71.1	71.1	71.1	96	69.9	0	1	248	0.00	29.973 
02:30	71.1	71.1	71.1	96	69.9	0	0	---	0.00	29.976 
02:35	71.1	71.1	71.1	96	69.9	0	1	248	0.00	29.976 
02:40	71.1	71.1	71.1	95	69.6	0	1	248	0.00	29.976 
02:45	70.9	70.9	70.9	95	69.4	0	0	---	0.00	29.970 
02:50	70.9	70.9	70.9	95	69.4	0	0	---	0.00	29.970 
02:55	70.8	70.8	70.8	95	69.3	0	0	---	0.00	29.970 
03:00	70.8	70.8	70.8	95	69.3	0	0	---	0.00	29.969 
03:05	70.6	70.6	70.6	95	69.1	0	0	---	0.00	29.969 
03:10	70.3	70.3	70.3	95	68.8	0	0	---	0.00	29.969 
03:15	70.1	70.1	70.1	95	68.6	0	0	---	0.00	29.970 
03:20	70.1	70.1	70.1	95	68.6	0	0	---	0.00	29.970 
03:25	69.9	69.9	69.9	95	68.4	0	0	---	0.00	29.970 
03:30	69.9	69.9	69.9	95	68.4	0	0	---	0.00	29.978 
03:35	69.8	69.8	69.8	94	68.0	0	0	---	0.00	29.978 
03:40	69.8	69.8	69.8	94	68.0	0	0	---	0.00	29.978 
03:45	69.8	69.8	69.8	95	68.3	0	0	---	0.00	29.982 
03:50	69.8	69.8	69.8	94	68.0	0	0	---	0.01	29.982 
03:55	69.8	69.8	69.8	95	68.3	0	0	---	0.00	29.982 
04:00	69.9	69.9	69.9	94	68.1	0	1	248	0.00	29.985 
04:05	69.9	69.9	69.9	94	68.1	0	0	---	0.00	29.985 
04:10	69.9	69.9	69.9	94	68.1	0	0	---	0.00	29.985 
04:15	69.9	69.9	69.9	94	68.1	0	0	---	0.00	29.991 
04:20	69.8	69.8	69.8	94	68.0	0	0	---	0.00	29.991 
04:25	69.8	69.8	69.8	94	68.0	0	1	248	0.00	29.991 
04:30	69.6	69.6	69.6	94	67.8	0	0	---	0.00	29.990 
04:35	69.6	69.6	69.6	93	67.5	0	1	248	0.00	29.990 
04:40	69.4	69.4	69.4	93	67.3	0	1	248	0.00	29.990 
04:45	69.4	69.4	69.4	93	67.3	0	1	248	0.00	29.995 
04:50	69.4	69.4	69.4	93	67.3	0	2	248	0.00	29.995 
04:55	69.3	69.3	69.3	93	67.2	0	1	248	0.00	29.995 
05:00	69.3	69.3	69.3	92	66.9	0	1	248	0.00	30.000 
05:05	69.1	69.1	69.1	92	66.7	0	1	248	0.00	30.000 
05:10	69.1	69.1	69.1	92	66.7	0	1	248	0.00	30.000 
05:15	68.9	68.9	68.9	92	66.5	0	1	248	0.00	30.012 
05:20	68.9	68.9	68.9	92	66.5	0	1	248	0.00	30.012 
05:25	68.8	68.8	68.8	91	66.1	0	0	---	0.00	30.012 
05:30	68.6	68.6	68.6	91	65.9	0	1	248	0.00	30.013 
05:35	68.4	68.4	68.4	91	65.7	0	0	---	0.00	30.013 
05:40	68.4	68.4	68.4	91	65.7	0	0	---	0.00	30.013 
05:45	68.3	68.3	68.3	91	65.6	0	0	---	0.00	30.015 
05:50	68.1	68.1	68.1	91	65.4	0	0	---	0.00	30.015 
05:55	67.9	67.9	67.9	91	65.2	0	0	---	0.00	30.015 
06:00	67.8	67.8	67.8	91	65.1	0	0	---	0.00	30.025 
06:05	67.6	67.6	67.6	91	64.9	0	0	---	0.00	30.025 
06:10	67.4	67.4	67.4	91	64.7	0	0	---	0.00	30.025 
06:15	67.1	67.1	67.1	90	64.1	0	1	248	0.00	30.029 
06:20	67.1	67.1	67.1	91	64.4	0	0	---	0.00	30.029 
06:25	66.9	66.9	66.9	91	64.2	0	0	---	0.00	30.029 
06:30	66.8	66.8	66.8	90	63.8	0	0	---	0.00	30.032 
06:35	66.6	66.6	66.6	90	63.6	0	2	248	0.00	30.032 
06:40	66.4	66.4	66.4	90	63.4	0	0	---	0.00	30.032 
06:45	66.4	66.4	66.4	90	63.4	0	1	248	0.00	30.035 
06:50	66.4	66.4	66.4	90	63.4	0	0	---	0.00	30.035 
06:55	66.3	66.3	66.3	90	63.3	0	0	---	0.00	30.035 
07:00	66.3	66.3	66.3	90	63.3	0	1	248	0.00	30.042 
07:05	66.1	66.1	66.1	90	63.1	0	2	248	0.00	30.042 
07:10	66.1	66.1	66.1	89	62.8	0	1	248	0.00	30.042 
07:15	66.1	66.1	66.1	89	62.8	0	0	---	0.00	30.051 
07:20	66.1	66.1	66.1	89	62.8	0	1	248	0.00	30.051 
07:25	66.3	66.3	66.3	89	63.0	0	1	248	0.00	30.051 
07:30	66.4	66.4	66.4	88	62.7	0	1	248	0.00	30.057 
07:35	66.8	66.8	66.8	88	63.1	0	1	248	0.00	30.057 
07:40	67.3	67.3	67.3	86	63.0	0	2	248	0.00	30.057 
07:45	67.8	67.8	67.8	85	63.1	0	0	---	0.00	30.063 
07:50	68.3	68.3	68.3	83	62.9	0	1	248	0.00	30.063 
07:55	68.9	68.9	68.9	83	63.5	0	1	248	0.00	30.063 
08:00	69.4	69.4	69.4	79	62.6	0	3	225	0.00	30.061 
08:05	69.8	69.8	69.8	78	62.6	0	3	158	0.00	30.061 
08:10	70.1	70.1	70.1	78	62.9	0	4	158	0.00	30.061 
08:15	70.1	70.1	70.1	79	63.3	0	4	---	0.00	30.065 
08:20	70.3	70.3	70.3	78	63.1	0	2	112	0.00	30.065 
08:25	70.6	70.6	70.6	76	62.7	0	3	112	0.00	30.065 
08:30	70.9	70.9	70.9	76	62.9	0	2	112	0.00	30.073 
08:35	71.1	71.1	71.1	76	63.1	0	2	112	0.00	30.073 
08:40	71.3	71.3	71.3	76	63.3	1	3	112	0.00	30.073 
08:45	71.6	71.6	71.6	74	62.9	0	3	112	0.00	30.074 
08:50	72.1	72.1	72.1	73	63.0	1	3	90	0.00	30.074 
08:55	72.5	72.5	72.5	71	62.5	1	5	90	0.00	30.074 
09:00	73.0	73.0	73.0	72	63.4	1	3	90	0.00	30.075 
09:05	73.3	73.3	73.3	71	63.3	0	3	90	0.00	30.075 
09:10	73.5	73.5	73.5	70	63.1	0	2	90	0.00	30.075 
09:15	73.7	73.7	73.7	71	63.7	1	4	90	0.00	30.076 
09:20	73.9	73.9	73.9	70	63.5	1	4	112	0.00	30.076 
09:25	74.0	74.0	74.0	67	62.3	2	5	90	0.00	30.076 
09:30	74.2	74.2	74.2	71	64.2	1	4	90	0.00	30.074 
09:35	74.4	74.4	74.4	66	62.3	1	3	90	0.00	30.074 
09:40	74.6	74.6	74.6	68	63.3	1	4	90	0.00	30.074 
09:45	74.6	74.6	74.6	65	62.0	1	5	90	0.00	30.076 
09:50	74.6	74.6	74.6	67	62.9	1	5	90	0.00	30.076 
09:55	74.7	74.7	74.7	65	62.1	1	4	90	0.00	30.076 
10:00	75.1	75.1	77.3	63	61.6	1	4	135	0.00	30.076 
10:05	74.9	74.9	74.9	63	61.4	3	6	112	0.00	30.076 
10:10	74.9	74.9	74.9	63	61.4	2	5	112	0.00	30.076 
10:15	75.6	75.6	77.5	66	63.4	1	3	90	0.00	30.075 
10:20	76.1	76.1	78.1	59	60.7	2	5	112	0.00	30.075 
10:25	76.3	76.3	78.2	62	62.3	2	4	90	0.00	30.075 
10:30	76.5	76.5	78.4	58	60.6	1	4	112	0.00	30.073 
10:35	76.8	76.8	78.6	56	59.9	2	5	112	0.00	30.073 
10:40	76.8	76.8	78.6	57	60.4	2	5	68	0.00	30.073 
10:45	77.0	77.0	78.7	57	60.6	2	5	90	0.00	30.073 
10:50	77.4	77.4	79.1	60	62.4	0	2	112	0.00	30.073 
10:55	77.6	77.6	79.2	56	60.6	1	3	112	0.00	30.073 
11:00	77.9	77.9	79.5	58	61.9	0	2	112	0.00	30.073 
11:05	78.3	78.3	79.6	53	59.7	2	5	112	0.00	30.073 
11:10	78.3	78.3	79.7	54	60.3	1	5	90	0.00	30.073 
11:15	78.3	78.3	79.7	55	60.8	2	4	112	0.00	30.076 
11:20	78.5	78.5	79.8	53	59.9	1	3	112	0.00	30.076 
11:25	78.5	78.5	79.8	54	60.4	2	6	112	0.00	30.076 
11:30	78.5	78.5	79.8	53	59.9	1	5	90	0.00	30.080 
11:35	78.6	78.6	79.9	54	60.5	1	5	90	0.00	30.080 
11:40	78.6	78.6	79.7	51	58.9	0	3	90	0.00	30.080 
11:45	78.8	78.8	79.7	48	57.4	0	2	90	0.00	30.085 
11:50	79.0	79.0	79.8	48	57.6	1	5	135	0.00	30.085 
11:55	79.6	79.6	80.4	49	58.7	1	5	112	0.00	30.085 
12:00	79.9	79.9	80.7	50	59.6	0	3	112	0.00	30.078 
12:05	80.1	80.1	80.8	49	59.2	1	3	135	0.00	30.078 
12:10	80.1	80.1	80.7	48	58.6	0	4	135	0.00	30.078 
12:15	80.1	80.1	80.4	45	56.8	0	2	135	0.00	30.082 
12:20	79.8	79.8	80.3	46	57.2	0	3	292	0.00	30.082 
12:25	80.1	80.1	80.4	45	56.8	1	4	90	0.00	30.082 
12:30	80.5	80.5	81.2	49	59.6	0	2	112	0.00	30.082 
12:35	80.7	80.7	80.6	42	55.4	1	3	112	0.00	30.082 
12:40	80.5	80.5	80.9	47	58.4	2	5	112	0.00	30.082 
12:45	80.3	80.3	80.8	47	58.2	2	5	112	0.00	30.082 
12:50	80.1	80.1	80.3	44	56.2	2	5	68	0.00	30.082 
12:55	80.3	80.3	80.4	43	55.7	1	4	90	0.00	30.082 
13:00	80.5	80.5	80.8	46	57.8	2	7	112	0.00	30.088 
13:05	80.5	80.5	81.0	48	59.0	2	6	90	0.00	30.088 
13:10	80.7	80.7	81.3	49	59.7	0	3	90	0.00	30.088 
13:15	80.7	80.7	81.1	47	58.6	0	3	112	0.00	30.082 
13:20	80.5	80.5	80.8	46	57.8	1	5	90	0.00	30.082 
13:25	80.5	80.5	80.8	46	57.8	0	3	135	0.00	30.082 
13:30	80.1	80.1	80.8	49	59.2	0	2	158	0.00	30.088 
13:35	80.3	80.3	81.0	49	59.4	0	2	158	0.00	30.088 
13:40	80.3	80.3	80.8	47	58.2	0	2	45	0.00	30.088 
13:45	80.7	80.7	81.0	46	58.0	1	3	68	0.00	30.087 
13:50	80.9	80.9	81.2	46	58.2	1	4	135	0.00	30.087 
13:55	81.1	81.1	81.5	47	58.9	2	6	90	0.00	30.087 
14:00	80.9	80.9	81.1	45	57.5	1	7	90	0.00	30.087 
14:05	80.7	80.7	80.8	44	56.7	1	4	292	0.00	30.087 
14:10	80.7	80.7	81.1	47	58.6	1	3	292	0.00	30.087 
14:15	80.9	80.9	80.9	43	56.3	2	7	158	0.00	30.085 
14:20	80.3	80.3	80.5	44	56.4	1	4	112	0.00	30.085 
14:25	80.3	80.3	80.4	43	55.7	1	6	68	0.00	30.085 
14:30	80.7	80.7	80.7	43	56.1	1	4	68	0.00	30.087 
14:35	80.9	80.9	80.9	43	56.3	1	3	90	0.00	30.087 
14:40	80.9	80.9	80.9	43	56.3	1	2	90	0.00	30.087 
14:45	80.9	80.9	81.1	45	57.5	0	3	90	0.00	30.084 
14:50	81.4	81.4	81.9	48	59.8	1	4	90	0.00	30.084 
14:55	81.4	81.4	81.3	43	56.7	1	4	68	0.00	30.084 
15:00	81.2	81.2	81.1	43	56.5	0	2	112	0.00	30.085 
15:05	81.2	81.2	81.2	44	57.2	1	6	135	0.00	30.085 
15:10	81.1	81.1	81.0	43	56.5	1	6	112	0.00	30.085 
15:15	80.7	80.7	80.5	41	54.8	0	2	22	0.00	30.082 
15:20	80.5	80.5	80.6	44	56.6	0	2	0	0.00	30.082 
15:25	80.9	80.9	80.8	42	55.6	1	4	112	0.00	30.082 
15:30	81.1	81.1	81.1	44	57.1	1	4	112	0.00	30.077 
15:35	81.4	81.4	81.3	43	56.7	0	4	135	0.00	30.077 
15:40	81.2	81.2	81.0	42	55.9	0	2	135	0.00	30.077 
15:45	81.6	81.6	81.2	41	55.6	0	3	135	0.00	30.074 
15:50	82.0	82.0	81.8	43	57.3	0	3	135	0.00	30.074 
15:55	81.6	81.6	81.0	39	54.2	0	3	292	0.00	30.074 
16:00	81.6	81.6	81.1	40	54.9	0	3	315	0.00	30.072 
16:05	81.4	81.4	80.7	37	52.6	1	3	315	0.00	30.072 
16:10	81.4	81.4	80.9	39	54.0	0	2	22	0.00	30.072 
16:15	81.2	81.2	80.8	40	54.6	1	4	22	0.00	30.072 
16:20	81.6	81.6	81.1	40	54.9	1	4	292	0.00	30.072 
16:25	81.4	81.4	80.9	39	54.0	1	2	270	0.00	30.072 
16:30	81.2	81.2	80.7	39	53.9	1	2	270	0.00	30.074 
16:35	81.4	81.4	81.0	40	54.7	1	5	112	0.00	30.074 
16:40	81.8	81.8	81.1	38	53.7	1	4	112	0.00	30.074 
16:45	81.6	81.6	80.7	36	52.0	0	3	90	0.00	30.070 
16:50	81.8	81.8	81.3	40	55.1	1	4	90	0.00	30.070 
16:55	81.6	81.6	81.0	39	54.2	1	4	68	0.00	30.070 
17:00	81.6	81.6	81.3	42	56.3	1	7	90	0.00	30.063 
17:05	81.4	81.4	81.2	42	56.1	0	2	90	0.00	30.063 
17:10	81.2	81.2	80.9	41	55.2	0	2	90	0.00	30.063 
17:15	80.7	80.7	80.5	41	54.8	1	6	135	0.00	30.069 
17:20	80.7	80.7	80.8	44	56.7	0	3	135	0.00	30.069 
17:25	80.9	80.9	80.7	41	55.0	1	4	135	0.00	30.069 
17:30	80.7	80.7	80.3	39	53.4	2	6	90	0.00	30.062 
17:35	80.5	80.5	80.5	42	55.3	1	6	90	0.00	30.062 
17:40	80.5	80.5	80.4	41	54.6	1	5	112	0.00	30.062 
17:45	80.5	80.5	80.3	40	53.9	0	2	22	0.00	30.063 
17:50	80.1	80.1	79.9	39	52.9	0	1	22	0.00	30.063 
17:55	80.1	80.1	80.3	43	55.6	0	3	270	0.00	30.063 
18:00	79.6	79.6	79.9	43	55.1	0	2	270	0.00	30.061 
18:05	79.4	79.4	79.8	43	54.9	0	2	112	0.00	30.061 
18:10	79.4	79.4	79.8	43	54.9	0	2	112	0.00	30.061 
18:15	79.2	79.2	79.5	42	54.1	1	4	112	0.00	30.058 
18:20	79.2	79.2	79.5	41	53.4	0	2	90	0.00	30.058 
18:25	79.0	79.0	79.4	42	53.9	0	2	90	0.00	30.058 
18:30	79.0	79.0	79.6	44	55.2	0	3	90	0.00	30.056 
18:35	79.0	79.0	79.6	45	55.8	0	2	338	0.00	30.056 
18:40	79.0	79.0	79.5	43	54.6	0	2	338	0.00	30.056 
18:45	79.0	79.0	79.4	42	53.9	0	1	338	0.00	30.062 
18:50	79.0	79.0	79.4	42	53.9	0	2	338	0.00	30.062 
18:55	79.0	79.0	79.4	42	53.9	0	1	338	0.00	30.062 
19:00	78.8	78.8	79.3	42	53.7	0	1	338	0.00	30.059 
19:05	78.6	78.6	79.2	43	54.2	0	4	112	0.00	30.059 
19:10	78.3	78.3	79.0	42	53.3	0	1	112	0.00	30.059 
19:15	78.1	78.1	79.0	44	54.4	0	2	112	0.00	30.050 
19:20	78.1	78.1	79.0	45	55.0	0	1	112	0.00	30.050 
19:25	77.9	77.9	79.0	46	55.4	0	1	112	0.00	30.050 
19:30	77.7	77.7	78.9	46	55.2	0	1	112	0.00	30.049 
19:35	77.6	77.6	78.8	45	54.6	0	2	112	0.00	30.049 
19:40	77.4	77.4	78.7	46	55.0	0	0	---	0.00	30.049 
19:45	77.2	77.2	78.5	45	54.2	0	1	112	0.00	30.050 
19:50	77.2	77.2	78.6	47	55.4	0	1	112	0.00	30.050 
19:55	77.0	77.0	78.4	45	54.0	0	0	---	0.00	30.050 
20:00	76.8	76.8	78.4	47	55.0	0	0	---	0.00	30.048 
20:05	76.7	76.7	78.4	47	54.9	0	1	112	0.00	30.048 
20:10	76.5	76.5	78.3	49	55.9	0	0	---	0.00	30.048 
20:15	76.3	76.3	78.2	50	56.3	0	0	---	0.00	30.043 
20:20	76.1	76.1	78.1	50	56.1	0	0	---	0.00	30.043 
20:25	76.0	76.0	78.1	50	56.0	0	0	---	0.00	30.043 
20:30	75.6	75.6	77.9	52	56.7	0	0	---	0.00	30.044 
20:35	75.3	75.3	77.7	52	56.4	0	0	---	0.00	30.044 
20:40	74.9	74.9	74.9	53	56.6	0	0	---	0.00	30.044 
20:45	74.6	74.6	74.6	54	56.8	0	0	---	0.00	30.044 
20:50	74.2	74.2	74.2	54	56.5	0	0	---	0.00	30.044 
20:55	73.9	73.9	73.9	54	56.2	0	0	---	0.00	30.044 
21:00	73.5	73.5	73.5	55	56.3	0	0	---	0.00	30.046 
21:05	73.2	73.2	73.2	56	56.5	0	0	---	0.00	30.046 
21:10	72.8	72.8	72.8	56	56.2	0	0	---	0.00	30.046 
21:15	72.5	72.5	72.5	57	56.4	0	0	---	0.00	30.045 
21:20	72.1	72.1	72.1	58	56.5	0	0	---	0.00	30.045 
21:25	71.8	71.8	71.8	59	56.7	0	0	---	0.00	30.045 
21:30	71.5	71.5	71.5	60	56.9	0	0	---	0.00	30.047 
21:35	71.1	71.1	71.1	61	57.0	0	0	---	0.00	30.047 
21:40	70.8	70.8	70.8	62	57.1	0	0	---	0.00	30.047 
21:45	70.4	70.4	70.4	63	57.2	0	0	---	0.00	30.051 
21:50	70.3	70.3	70.3	64	57.5	0	0	---	0.00	30.051 
21:55	69.9	69.9	69.9	65	57.6	0	0	---	0.00	30.051 
22:00	69.6	69.6	69.6	67	58.1	0	0	---	0.00	30.062 
22:05	69.4	69.4	69.4	66	57.5	0	0	---	0.00	30.062 
22:10	69.1	69.1	69.1	67	57.7	0	0	---	0.00	30.062 
22:15	68.9	68.9	68.9	68	57.9	0	0	---	0.00	30.068 
22:20	68.6	68.6	68.6	70	58.4	0	0	---	0.00	30.068 
22:25	68.4	68.4	68.4	70	58.2	0	0	---	0.00	30.068 
22:30	68.3	68.3	68.3	71	58.5	0	0	---	0.00	30.068 
22:35	68.1	68.1	68.1	71	58.3	0	0	---	0.00	30.068 
22:40	67.8	67.8	67.8	73	58.8	0	0	---	0.00	30.068 
22:45	67.6	67.6	67.6	73	58.6	0	0	---	0.00	30.072 
22:50	67.4	67.4	67.4	74	58.8	0	0	---	0.00	30.072 
22:55	67.3	67.3	67.3	74	58.7	0	0	---	0.00	30.072 
23:00	67.1	67.1	67.1	76	59.3	0	0	---	0.00	30.075 
23:05	66.9	66.9	66.9	76	59.1	0	0	---	0.00	30.075 
23:10	66.8	66.8	66.8	77	59.3	0	0	---	0.00	30.075 
23:15	66.6	66.6	66.6	77	59.2	0	0	---	0.00	30.075 
23:20	66.4	66.4	66.4	77	59.0	0	0	---	0.00	30.075 
23:25	66.4	66.4	66.4	78	59.3	0	0	---	0.00	30.075 
23:30	66.1	66.1	66.1	78	59.0	0	0	---	0.00	30.075 
23:35	66.0	66.0	66.0	79	59.3	0	0	---	0.00	30.075 
23:40	65.8	65.8	65.8	79	59.1	0	0	---	0.00	30.075 
23:45	65.8	65.8	65.8	80	59.5	0	0	---	0.00	30.074 
23:50	65.6	65.6	65.6	81	59.6	0	0	---	0.00	30.074 
23:55	65.5	65.5	65.5	81	59.5	0	0	---	0.00	30.074 

CoCoRaHS
IN-AL-39
A2 Web Hosting
Creative Commons License
GoDaddy
search engine by freefind advanced

loaded 2018-11-15 18:54:20 • last modified 2010-11-18 10:43:29
Privacy PolicyDisclaimer
• wx.awcolley.com is powered by PmWiki v.2002016 •
• all content (unless otherwise noted) © 2018 A W Colley